Time;durP1;ratioP1;P1;durP2;ratioP2;P2;SDS_P1;SDS_P2;PMS_P1;PMS_P2;Temp;Humidity;BMP_temperature;BMP_pressure;BME280_temperature;BME280_humidity;BME280_pressure;Samples;Min_cycle;Max_cycle;Signal;HPM_P1;HPM_P2
2024/03/05 00:02:14;;;;;;;38.40;21.63;;;;;;;6.44;100.00;97968.63;15285919;19;20031;-75
2024/03/05 00:07:38;;;;;;;40.47;22.52;;;;;;;6.50;100.00;97966.38;15299163;19;20793;-75
2024/03/05 00:13:07;;;;;;;41.30;22.50;;;;;;;6.55;100.00;97980.13;15298890;19;20015;-75
2024/03/05 00:18:32;;;;;;;40.33;22.35;;;;;;;6.58;100.00;97979.84;15303234;19;20416;-75
2024/03/05 00:23:57;;;;;;;37.40;22.35;;;;;;;6.57;100.00;97979.03;15297157;19;20017;-75
2024/03/05 00:29:24;;;;;;;38.63;22.55;;;;;;;6.58;100.00;97982.53;15295561;19;20086;-75
2024/03/05 00:34:49;;;;;;;39.60;22.55;;;;;;;6.59;100.00;97985.06;15298678;19;20054;-75
2024/03/05 00:40:15;;;;;;;43.35;22.60;;;;;;;6.62;100.00;97987.44;15299431;19;20022;-75
2024/03/05 00:45:43;;;;;;;36.20;21.33;;;;;;;6.64;100.00;97981.97;15297139;19;20078;-75
2024/03/05 00:51:08;;;;;;;38.83;21.45;;;;;;;6.65;100.00;97975.59;15296314;19;20018;-74
2024/03/05 00:56:33;;;;;;;37.00;22.33;;;;;;;6.68;100.00;97988.69;15291679;19;20014;-75
2024/03/05 01:02:01;;;;;;;38.83;22.90;;;;;;;6.68;100.00;97977.16;15295169;19;20021;-74
2024/03/05 01:07:26;;;;;;;42.25;23.35;;;;;;;6.68;100.00;97985.19;15287179;19;20410;-75
2024/03/05 01:12:57;;;;;;;38.13;22.10;;;;;;;6.69;100.00;97979.66;15294054;19;20024;-76
2024/03/05 01:18:26;;;;;;;37.17;21.95;;;;;;;6.70;100.00;97978.69;15310393;19;20025;-77
2024/03/05 01:23:51;;;;;;;36.88;21.90;;;;;;;6.69;100.00;97982.34;15313021;19;20082;-76
2024/03/05 01:29:17;;;;;;;45.85;22.67;;;;;;;6.66;100.00;97982.63;15291200;19;20019;-76
2024/03/05 01:34:48;;;;;;;40.95;21.88;;;;;;;6.68;100.00;97979.81;15297563;19;20006;-75
2024/03/05 01:40:14;;;;;;;42.83;23.00;;;;;;;6.67;100.00;97989.66;15300675;19;20432;-75
2024/03/05 01:45:38;;;;;;;41.17;22.23;;;;;;;6.68;100.00;97980.66;15291960;19;20287;-75
2024/03/05 01:51:06;;;;;;;50.65;22.52;;;;;;;6.70;100.00;97986.72;15291751;19;20086;-75
2024/03/05 01:56:31;;;;;;;58.35;25.05;;;;;;;6.68;100.00;97980.66;15284823;19;20018;-76
2024/03/05 02:01:57;;;;;;;53.63;23.58;;;;;;;6.70;100.00;97977.84;15292829;19;20113;-75
2024/03/05 02:07:25;;;;;;;50.40;23.92;;;;;;;6.69;100.00;97976.16;15290114;19;20346;-76
2024/03/05 02:12:50;;;;;;;66.18;24.55;;;;;;;6.68;100.00;97980.66;15291376;19;20017;-75
2024/03/05 02:18:14;;;;;;;67.75;25.98;;;;;;;6.68;100.00;97986.00;15296319;19;20122;-76
2024/03/05 02:23:43;;;;;;;62.58;25.27;;;;;;;6.68;100.00;97983.34;15294017;19;20039;-75
2024/03/05 02:29:09;;;;;;;115.78;26.33;;;;;;;6.67;100.00;97972.78;15033788;19;5000847;-75
2024/03/05 02:34:34;;;;;;;105.55;26.05;;;;;;;6.65;100.00;97986.28;15291117;19;20015;-76
2024/03/05 02:40:03;;;;;;;103.63;25.65;;;;;;;6.62;100.00;97978.59;15294987;19;20078;-75
2024/03/05 02:45:29;;;;;;;124.15;27.00;;;;;;;6.60;100.00;97988.59;15289641;19;20033;-75
2024/03/05 02:50:55;;;;;;;141.63;27.98;;;;;;;6.56;100.00;97981.81;15286890;19;20022;-75
2024/03/05 02:56:23;;;;;;;87.57;28.42;;;;;;;6.49;100.00;97978.91;15282607;19;20081;-75
2024/03/05 03:01:48;;;;;;;190.77;29.10;;;;;;;6.47;100.00;97988.91;15286181;19;20388;-75
2024/03/05 03:07:13;;;;;;;95.47;29.15;;;;;;;6.43;100.00;97982.16;15291728;19;20021;-76
2024/03/05 03:12:40;;;;;;;75.68;30.27;;;;;;;6.44;100.00;97989.22;15289187;19;20025;-76
2024/03/05 03:18:05;;;;;;;71.68;30.25;;;;;;;6.42;100.00;97986.66;15287903;19;20010;-76
2024/03/05 03:23:30;;;;;;;66.18;28.20;;;;;;;6.42;100.00;97986.66;15292097;19;20447;-75
2024/03/05 03:28:58;;;;;;;62.90;27.77;;;;;;;6.43;100.00;97988.34;15287936;19;20077;-75
2024/03/05 03:34:24;;;;;;;56.92;27.50;;;;;;;6.44;100.00;97987.34;15287801;19;20453;-75
2024/03/05 03:39:49;;;;;;;53.78;26.98;;;;;;;6.46;100.00;97985.38;15301035;19;20424;-75
2024/03/05 03:45:18;;;;;;;54.88;27.58;;;;;;;6.46;100.00;97998.78;15302172;19;20090;-73
2024/03/05 03:50:43;;;;;;;55.47;27.10;;;;;;;6.44;100.00;97987.34;15300753;19;20102;-75
2024/03/05 03:56:09;;;;;;;55.97;27.52;;;;;;;6.44;100.00;97998.06;15292123;19;20029;-75
2024/03/05 04:01:37;;;;;;;56.80;27.55;;;;;;;6.43;100.00;97988.34;15305638;19;20019;-75
2024/03/05 04:07:02;;;;;;;53.75;27.27;;;;;;;6.45;100.00;97991.72;15292708;19;20025;-74
2024/03/05 04:12:27;;;;;;;52.20;26.42;;;;;;;6.46;100.00;97995.25;15303555;19;20022;-74
2024/03/05 04:17:55;;;;;;;51.00;26.73;;;;;;;6.48;100.00;98002.16;15307181;19;20583;-78
2024/03/05 04:23:21;;;;;;;50.08;26.23;;;;;;;6.48;100.00;97996.78;15301615;19;20082;-77
2024/03/05 04:28:54;;;;;;;55.08;27.15;;;;;;;6.46;100.00;98004.13;15309328;19;20006;-77
2024/03/05 04:34:22;;;;;;;53.78;26.70;;;;;;;6.45;100.00;98006.94;15363693;19;20014;-78
2024/03/05 04:39:47;;;;;;;54.95;27.55;;;;;;;6.44;100.00;98011.44;15308867;19;20517;-78
2024/03/05 04:45:13;;;;;;;53.28;27.30;;;;;;;6.40;100.00;98015.41;15303136;19;20018;-77
2024/03/05 04:50:40;;;;;;;59.17;28.98;;;;;;;6.38;100.00;98014.72;15298464;19;20421;-79
2024/03/05 04:56:06;;;;;;;62.08;28.55;;;;;;;6.37;100.00;98015.69;15290901;19;20086;-79
2024/03/05 05:01:30;;;;;;;61.50;27.92;;;;;;;6.36;100.00;98007.78;15326086;19;20010;-77
2024/03/05 05:06:58;;;;;;;70.10;29.88;;;;;;;6.33;100.00;98003.59;15325297;19;20017;-81
2024/03/05 05:12:22;;;;;;;74.85;32.10;;;;;;;6.31;100.00;98005.56;15305143;19;20025;-77
2024/03/05 05:17:48;;;;;;;79.80;33.85;;;;;;;6.29;100.00;97994.19;15309646;19;20025;-78
2024/03/05 05:23:15;;;;;;;87.28;33.75;;;;;;;6.29;100.00;97991.50;15300746;19;20357;-78
2024/03/05 05:28:40;;;;;;;83.18;32.67;;;;;;;6.26;100.00;97981.09;15292576;19;20025;-78
2024/03/05 05:34:04;;;;;;;84.43;32.58;;;;;;;6.24;100.00;97989.25;15304433;19;20070;-78
2024/03/05 05:39:25;;;;;;;135.82;35.15;;;;;;;6.22;100.00;97985.91;15294224;19;20011;-78
2024/03/05 05:44:52;;;;;;;191.70;36.90;;;;;;;6.17;100.00;97991.66;15298194;19;20074;-78
2024/03/05 05:50:22;;;;;;;482.08;42.88;;;;;;;6.15;100.00;97996.31;15300062;19;20031;-77
2024/03/05 05:55:51;;;;;;;299.27;40.05;;;;;;;6.15;100.00;98006.16;15295141;19;20375;-78
2024/03/05 06:01:15;;;;;;;248.55;41.72;;;;;;;6.12;100.00;98001.94;15297913;19;20480;-78
2024/03/05 06:06:41;;;;;;;123.07;41.13;;;;;;;6.14;100.00;98012.50;15296900;19;20626;-78
2024/03/05 06:12:10;;;;;;;117.95;39.25;;;;;;;6.15;100.00;98009.69;15305268;19;20015;-78
2024/03/05 06:17:38;;;;;;;161.27;42.05;;;;;;;6.20;100.00;98013.75;15308988;19;20352;-77
2024/03/05 06:23:04;;;;;;;141.30;41.03;;;;;;;6.23;100.00;98029.53;15301228;19;20014;-77
2024/03/05 06:28:32;;;;;;;198.23;43.10;;;;;;;6.23;100.00;98029.53;15302871;19;20014;-78
2024/03/05 06:33:56;;;;;;;189.90;43.85;;;;;;;6.22;100.00;98034.03;15294535;19;20033;-78
2024/03/05 06:39:29;;;;;;;153.35;43.97;;;;;;;6.22;100.00;98041.22;15297032;19;20037;-78
2024/03/05 06:45:05;;;;;;;189.23;44.05;;;;;;;6.24;100.00;98047.25;15303346;19;20022;-79
2024/03/05 06:50:36;;;;;;;158.10;43.03;;;;;;;6.28;100.00;98048.69;15296172;19;20010;-78
2024/03/05 07:01:48;;;;;;;139.17;42.27;;;;;;;6.34;100.00;98058.78;15292123;19;20010;-77
2024/03/05 07:07:13;;;;;;;109.03;40.10;;;;;;;6.38;100.00;98065.56;15291080;19;20085;-78
2024/03/05 07:12:39;;;;;;;101.38;38.88;;;;;;;6.43;100.00;98065.94;15289070;19;20084;-79
2024/03/05 07:18:07;;;;;;;101.22;38.05;;;;;;;6.43;100.00;98068.63;15296326;19;20481;-80
2024/03/05 07:23:32;;;;;;;86.80;36.38;;;;;;;6.45;100.00;98072.00;15289151;19;20015;-79
2024/03/05 07:28:57;;;;;;;78.97;34.72;;;;;;;6.53;100.00;98073.09;15285830;19;20096;-79
2024/03/05 07:34:25;;;;;;;68.85;31.90;;;;;;;6.57;100.00;98075.38;15292454;19;20010;-77
2024/03/05 07:39:49;;;;;;;58.60;30.45;;;;;;;6.63;100.00;98073.94;15296527;19;20010;-77
2024/03/05 07:45:15;;;;;;;55.63;28.50;;;;;;;6.69;100.00;98078.72;15312025;19;20481;-76
2024/03/05 07:50:53;;;;;;;61.67;30.83;;;;;;;6.72;100.00;98083.78;15283322;19;20077;-77
2024/03/05 07:56:18;;;;;;;67.75;31.92;;;;;;;6.75;100.00;98082.63;15278695;19;20074;-76
2024/03/05 08:01:43;;;;;;;72.10;32.92;;;;;;;6.78;100.00;98085.03;15283280;19;20014;-77
2024/03/05 08:07:12;;;;;;;78.03;34.08;;;;;;;6.81;100.00;98083.91;15278670;19;20016;-76
2024/03/05 08:12:37;;;;;;;73.60;32.33;;;;;;;6.84;100.00;98083.59;15289208;19;20017;-77
2024/03/05 08:18:02;;;;;;;74.95;32.65;;;;;;;6.87;100.00;98081.47;15290240;19;20014;-75
2024/03/05 08:23:29;;;;;;;71.70;32.63;;;;;;;6.93;100.00;98088.09;15286245;19;20037;-76
2024/03/05 08:28:55;;;;;;;72.53;33.00;;;;;;;6.99;100.00;98083.97;15297961;19;20015;-77
2024/03/05 08:34:20;;;;;;;74.25;31.75;;;;;;;7.00;100.00;98085.66;15293729;19;20086;-77
2024/03/05 08:39:49;;;;;;;75.97;32.50;;;;;;;7.06;100.00;98083.25;15292455;19;20010;-77
2024/03/05 08:45:15;;;;;;;80.18;32.08;;;;;;;7.11;100.00;98084.66;15296106;19;20735;-77
2024/03/05 08:50:40;;;;;;;79.63;32.83;;;;;;;7.18;100.00;98094.59;15295488;19;20021;-77
2024/03/05 08:56:07;;;;;;;69.82;30.95;;;;;;;7.24;100.00;98091.34;15289813;19;20085;-77
2024/03/05 09:01:33;;;;;;;65.43;30.00;;;;;;;7.33;100.00;98092.28;15295030;19;20529;-77
2024/03/05 09:06:57;;;;;;;57.63;28.63;;;;;;;7.40;100.00;98089.88;15301554;19;20018;-76
2024/03/05 09:12:28;;;;;;;56.83;29.00;;;;;;;7.50;100.00;98093.34;15287764;19;20018;-76
2024/03/05 09:17:52;;;;;;;50.03;26.37;;;;;;;7.65;100.00;98082.94;15300709;19;20041;-76
2024/03/05 09:23:19;;;;;;;37.25;23.33;;;;;;;7.82;100.00;98080.44;15293031;19;20335;-76
2024/03/05 09:28:47;;;;;;;33.95;21.08;;;;;;;7.96;100.00;98087.09;15300494;19;20037;-76
2024/03/05 09:34:19;;;;;;;31.90;20.65;;;;;;;8.08;100.00;98090.38;15296547;19;20010;-77
2024/03/05 09:39:44;;;;;;;30.20;19.48;;;;;;;8.05;100.00;98088.84;15292529;19;20015;-77
2024/03/05 09:45:14;;;;;;;28.13;18.65;;;;;;;8.09;100.00;98092.06;15292817;19;20082;-76
2024/03/05 09:50:40;;;;;;;28.40;18.52;;;;;;;8.07;100.00;98094.91;15290833;19;20042;-76
2024/03/05 09:56:06;;;;;;;24.88;17.02;;;;;;;8.02;100.00;98102.56;15286553;19;20077;-76
2024/03/05 10:01:36;;;;;;;27.00;17.95;;;;;;;7.99;100.00;98100.22;15294231;19;20015;-77
2024/03/05 10:07:06;;;;;;;35.53;20.88;;;;;;;7.88;100.00;98100.44;15299335;19;20481;-77
2024/03/05 10:12:31;;;;;;;33.83;20.65;;;;;;;7.77;100.00;98110.38;15301245;19;20010;-78
2024/03/05 10:18:02;;;;;;;32.28;19.98;;;;;;;7.69;100.00;98108.47;15305497;19;20031;-77
2024/03/05 10:23:27;;;;;;;34.33;20.43;;;;;;;7.64;100.00;98113.41;15296797;19;20595;-77
2024/03/05 10:28:53;;;;;;;35.85;21.65;;;;;;;7.62;100.00;98115.41;15300439;19;20086;-77
2024/03/05 10:34:21;;;;;;;34.75;20.77;;;;;;;7.58;100.00;98119.41;15299911;19;20037;-77
2024/03/05 10:39:48;;;;;;;35.78;21.13;;;;;;;7.55;100.00;98123.19;15291740;19;20014;-76
2024/03/05 10:45:14;;;;;;;36.72;21.52;;;;;;;7.52;100.00;98122.66;15297463;19;20017;-78
2024/03/05 10:50:44;;;;;;;36.10;21.52;;;;;;;7.46;100.00;98128.63;15293748;19;20018;-77
2024/03/05 10:56:09;;;;;;;35.05;21.48;;;;;;;7.50;100.00;98127.31;15086701;19;5001662;-76
2024/03/05 11:01:37;;;;;;;36.85;21.98;;;;;;;7.52;100.00;98125.34;15289937;19;20017;-77
2024/03/05 11:07:07;;;;;;;34.67;20.40;;;;;;;7.47;100.00;98124.94;15286532;19;20626;-76
2024/03/05 11:12:38;;;;;;;32.25;20.20;;;;;;;7.46;100.00;98144.72;15292384;19;20093;-77
2024/03/05 11:18:03;;;;;;;38.83;21.38;;;;;;;7.44;100.00;98162.78;15286903;19;20049;-76
2024/03/05 11:23:36;;;;;;;36.90;21.10;;;;;;;7.38;100.00;98159.69;15277363;19;20014;-76
2024/03/05 11:29:07;;;;;;;37.95;22.02;;;;;;;7.34;100.00;98174.38;15282357;19;20126;-76
2024/03/05 11:34:35;;;;;;;46.05;23.88;;;;;;;7.32;100.00;98183.53;15279757;19;20033;-76
2024/03/05 11:40:14;;;;;;;45.95;24.75;;;;;;;7.26;100.00;98182.28;15281758;19;20025;-76
2024/03/05 11:45:56;;;;;;;47.75;24.92;;;;;;;7.25;100.00;98192.19;15289633;19;20082;-76
2024/03/05 11:51:22;;;;;;;45.70;24.53;;;;;;;7.28;100.00;98206.28;15284737;19;20015;-76
2024/03/05 11:56:53;;;;;;;50.67;26.20;;;;;;;7.33;100.00;98215.56;15287221;19;20013;-76
2024/03/05 12:02:17;;;;;;;46.70;24.48;;;;;;;7.36;100.00;98225.16;15299743;19;20138;-76
2024/03/05 12:07:42;;;;;;;47.80;25.33;;;;;;;7.35;100.00;98234.16;15297360;19;20010;-76
2024/03/05 12:13:10;;;;;;;42.55;23.63;;;;;;;7.23;100.00;98230.84;15303731;19;20352;-76
2024/03/05 12:18:34;;;;;;;45.08;23.90;;;;;;;7.17;100.00;98231.41;15297624;19;20085;-77
2024/03/05 12:24:02;;;;;;;43.80;23.25;;;;;;;7.15;100.00;98247.63;15043038;19;5000988;-76
2024/03/05 12:29:43;;;;;;;25.63;16.30;;;;;;;7.13;100.00;98244.25;15298249;19;20086;-76
2024/03/05 12:35:08;;;;;;;21.80;14.97;;;;;;;7.11;100.00;98254.25;15301974;19;20042;-76
2024/03/05 12:40:33;;;;;;;22.90;16.52;;;;;;;7.09;100.00;98259.75;15300806;19;20082;-76
2024/03/05 12:46:05;;;;;;;25.23;18.13;;;;;;;7.07;100.00;98268.91;15294908;19;20427;-76
2024/03/05 12:51:31;;;;;;;25.73;20.38;;;;;;;7.09;100.00;98278.50;15300723;19;20014;-76
2024/03/05 12:56:56;;;;;;;29.58;21.40;;;;;;;7.11;100.00;98286.41;15296106;19;20078;-76
2024/03/05 13:02:24;;;;;;;30.33;22.58;;;;;;;7.08;100.00;98295.56;15315830;19;20011;-76
2024/03/05 13:07:49;;;;;;;34.67;25.05;;;;;;;7.07;100.00;98296.56;15298125;19;20021;-76
2024/03/05 13:13:14;;;;;;;42.80;29.48;;;;;;;7.08;100.00;98292.03;15294604;19;20018;-76
2024/03/05 13:18:42;;;;;;;41.78;27.73;;;;;;;7.09;100.00;98305.31;15294701;19;20503;-76
2024/03/05 13:24:07;;;;;;;45.95;29.48;;;;;;;7.08;100.00;98300.06;15299203;19;20010;-76
2024/03/05 13:29:32;;;;;;;42.28;28.27;;;;;;;7.07;100.00;98304.59;15288672;19;20018;-76
2024/03/05 13:35:08;;;;;;;47.80;29.52;;;;;;;7.07;100.00;98312.63;15300364;19;20062;-78
2024/03/05 13:40:32;;;;;;;42.95;29.65;;;;;;;7.08;100.00;98321.50;15308656;19;20026;-77
2024/03/05 13:45:58;;;;;;;40.17;27.75;;;;;;;7.03;100.00;98324.59;15301693;19;20021;-76
2024/03/05 13:51:26;;;;;;;41.13;30.70;;;;;;;6.92;100.00;98340.81;15306754;19;20528;-78
2024/03/05 13:56:51;;;;;;;42.75;29.90;;;;;;;6.76;100.00;98333.34;15308867;19;20033;-79
2024/03/05 14:02:15;;;;;;;45.55;31.58;;;;;;;6.63;100.00;98336.28;15321459;19;20014;-77
2024/03/05 14:07:44;;;;;;;46.08;30.83;;;;;;;6.54;100.00;98337.09;15091161;19;5001397;-77
2024/03/05 14:13:13;;;;;;;48.45;31.63;;;;;;;6.41;100.00;98343.53;15313047;19;20010;-79
2024/03/05 14:18:38;;;;;;;49.20;33.00;;;;;;;6.32;100.00;98341.69;15312864;19;20014;-78
2024/03/05 14:24:05;;;;;;;56.08;33.80;;;;;;;6.25;100.00;98348.56;15031252;19;5001565;-77
2024/03/05 14:29:30;;;;;;;50.10;33.20;;;;;;;6.24;100.00;98358.41;15291011;19;20085;-77
2024/03/05 14:35:02;;;;;;;52.88;33.30;;;;;;;6.19;100.00;98360.66;15295168;19;20070;-77
2024/03/05 14:40:29;;;;;;;54.50;36.53;;;;;;;6.16;100.00;98361.78;15301101;19;20101;-78
2024/03/05 14:45:54;;;;;;;54.45;33.92;;;;;;;6.12;100.00;98364.84;15298358;19;20592;-77
2024/03/05 14:51:19;;;;;;;55.28;33.08;;;;;;;6.10;100.00;98370.34;15293718;19;20007;-77
2024/03/05 14:56:47;;;;;;;44.60;32.22;;;;;;;6.06;100.00;98381.44;15301841;19;20028;-77
2024/03/05 15:02:12;;;;;;;42.20;29.83;;;;;;;6.01;100.00;98382.66;15295277;19;20022;-76
2024/03/05 15:07:38;;;;;;;44.13;29.23;;;;;;;5.98;100.00;98387.41;15290696;19;20033;-77
2024/03/05 15:13:06;;;;;;;40.25;27.00;;;;;;;5.94;100.00;98388.69;15298289;19;20011;-77
2024/03/05 15:18:31;;;;;;;36.22;27.92;;;;;;;5.92;100.00;98390.63;15297429;19;20033;-76
2024/03/05 15:23:55;;;;;;;35.72;27.15;;;;;;;5.89;100.00;98401.59;15292602;19;20032;-78
2024/03/05 15:29:23;;;;;;;33.88;27.35;;;;;;;5.86;100.00;98402.69;15287693;19;20102;-78
2024/03/05 15:34:47;;;;;;;39.53;27.55;;;;;;;5.82;100.00;98409.28;15288599;19;20018;-78
2024/03/05 15:40:18;;;;;;;41.65;28.58;;;;;;;5.79;100.00;98410.41;15286566;19;20027;-77
2024/03/05 15:45:46;;;;;;;39.13;29.65;;;;;;;5.77;100.00;98414.16;15283985;19;20544;-78
2024/03/05 15:51:12;;;;;;;40.63;31.92;;;;;;;5.75;100.00;98413.47;15292837;19;20014;-78
2024/03/05 15:56:57;;;;;;;42.22;32.22;;;;;;;5.71;100.00;98416.41;15283463;19;20481;-78
2024/03/05 16:02:25;;;;;;;37.53;28.98;;;;;;;5.66;100.00;98415.94;15291207;19;20010;-79
2024/03/05 16:07:49;;;;;;;35.38;29.13;;;;;;;5.64;100.00;98430.41;15284753;19;20765;-78
2024/03/05 16:13:16;;;;;;;36.05;28.95;;;;;;;5.63;100.00;98429.56;15286717;19;20841;-78
2024/03/05 16:18:44;;;;;;;40.78;30.02;;;;;;;5.60;100.00;98429.81;15267634;19;20053;-77
2024/03/05 16:24:09;;;;;;;35.13;27.25;;;;;;;5.58;100.00;98437.13;15290143;19;20010;-78
2024/03/05 16:29:33;;;;;;;35.65;28.27;;;;;;;5.55;100.00;98443.56;15284535;19;20023;-78
2024/03/05 16:35:01;;;;;;;41.53;30.52;;;;;;;5.50;100.00;98460.97;15280848;19;123134;-78
2024/03/05 16:40:26;;;;;;;40.22;31.10;;;;;;;5.46;100.00;98468.41;15296233;19;20011;-76
2024/03/05 16:45:52;;;;;;;42.60;32.25;;;;;;;5.43;100.00;98470.47;15299268;19;20070;-78
2024/03/05 16:51:19;;;;;;;41.67;32.35;;;;;;;5.40;100.00;98468.91;15317086;19;20039;-78
2024/03/05 16:56:44;;;;;;;43.70;33.78;;;;;;;5.38;100.00;98481.53;15328794;19;20018;-78
2024/03/05 17:02:14;;;;;;;42.47;31.52;;;;;;;5.34;100.00;98486.28;15346030;19;20007;-79
2024/03/05 17:07:33;;;;;;;41.85;32.80;;;;;;;5.33;100.00;98495.28;15341253;19;20681;-77
2024/03/05 17:13:03;;;;;;;37.70;30.67;;;;;;;5.28;100.00;98507.31;15049304;19;5001339;-77
2024/03/05 17:18:30;;;;;;;39.97;31.10;;;;;;;5.22;100.00;98506.84;15304936;19;20267;-76
2024/03/05 17:23:59;;;;;;;42.60;31.40;;;;;;;5.16;100.00;98498.50;15302609;19;20485;-78
2024/03/05 17:29:26;;;;;;;41.78;31.10;;;;;;;5.10;100.00;98497.16;15294458;19;20487;-80
2024/03/05 17:34:50;;;;;;;40.67;32.05;;;;;;;5.06;100.00;98501.88;15301651;19;20017;-77
2024/03/05 17:40:21;;;;;;;37.38;30.05;;;;;;;5.03;100.00;98512.84;15311353;19;20011;-80
2024/03/05 17:45:52;;;;;;;36.45;29.52;;;;;;;5.02;100.00;98523.63;15305937;19;20029;-78
2024/03/05 17:51:18;;;;;;;30.42;24.45;;;;;;;4.94;100.00;98519.75;15302013;19;20039;-78
2024/03/05 17:56:46;;;;;;;29.38;24.63;;;;;;;4.92;100.00;98518.19;15302554;19;20014;-79
2024/03/05 18:02:10;;;;;;;26.95;22.08;;;;;;;4.84;100.00;98526.81;15305186;19;20429;-79
2024/03/05 18:07:35;;;;;;;23.67;20.35;;;;;;;4.78;100.00;98527.28;15302031;19;20473;-78
2024/03/05 18:13:04;;;;;;;25.10;18.45;;;;;;;4.72;100.00;98525.09;15299157;19;20086;-81
2024/03/05 18:18:32;;;;;;;21.35;18.30;;;;;;;4.67;100.00;98533.47;15294173;19;20023;-80
2024/03/05 18:23:56;;;;;;;19.58;16.50;;;;;;;4.63;100.00;98534.69;15294349;19;20692;-77
2024/03/05 18:29:26;;;;;;;21.25;16.60;;;;;;;4.61;100.00;98540.16;15298869;19;20525;-78
2024/03/05 18:34:51;;;;;;;19.73;15.80;;;;;;;4.61;100.00;98549.97;15291116;19;20018;-77
2024/03/05 18:40:21;;;;;;;19.98;16.08;;;;;;;4.59;100.00;98547.41;15301393;19;20031;-77
2024/03/05 18:45:49;;;;;;;17.58;14.63;;;;;;;4.58;100.00;98548.38;15296012;19;20090;-77
2024/03/05 18:51:16;;;;;;;20.08;15.25;;;;;;;4.57;100.00;98544.03;15290083;19;20025;-76
2024/03/05 18:56:41;;;;;;;19.48;15.40;;;;;;;4.57;100.00;98544.03;15299436;19;20381;-78
2024/03/05 19:02:09;;;;;;;17.85;15.20;;;;;;;4.57;100.00;98544.03;15292867;19;20046;-77
2024/03/05 19:07:38;;;;;;;17.60;14.20;;;;;;;4.57;100.00;98543.19;15335271;19;20018;-76
2024/03/05 19:12:56;;;;;;;18.35;15.50;;;;;;;4.58;100.00;98547.56;15342895;19;20026;-76
2024/03/05 19:18:24;;;;;;;19.52;15.40;;;;;;;4.60;100.00;98554.47;15294495;19;20485;-77
2024/03/05 19:23:49;;;;;;;21.58;15.95;;;;;;;4.60;100.00;98573.13;15282223;19;20030;-76
2024/03/05 19:29:13;;;;;;;18.40;15.10;;;;;;;4.61;100.00;98566.84;15286102;19;20517;-76
2024/03/05 19:34:41;;;;;;;18.40;15.82;;;;;;;4.59;100.00;98563.44;15288519;19;20020;-77
2024/03/05 19:40:06;;;;;;;19.38;16.42;;;;;;;4.59;100.00;98558.09;15286081;19;20011;-77
2024/03/05 19:45:32;;;;;;;22.50;16.15;;;;;;;4.59;100.00;98557.22;15290557;19;20074;-76
2024/03/05 19:51:00;;;;;;;20.48;16.55;;;;;;;4.58;100.00;98563.56;15292719;19;20078;-77
2024/03/05 19:56:25;;;;;;;20.30;16.38;;;;;;;4.57;100.00;98570.72;15314529;19;20024;-77
2024/03/05 20:01:49;;;;;;;18.48;16.42;;;;;;;4.59;100.00;98568.78;15294167;19;20011;-77
2024/03/05 20:07:17;;;;;;;19.05;16.60;;;;;;;4.60;100.00;98573.13;15292347;19;20015;-76
2024/03/05 20:12:43;;;;;;;21.63;16.75;;;;;;;4.62;100.00;98575.69;15285766;19;20046;-77
2024/03/05 20:18:08;;;;;;;21.85;17.33;;;;;;;4.63;100.00;98578.25;15283266;19;20467;-77
2024/03/05 20:23:35;;;;;;;18.25;15.88;;;;;;;4.63;100.00;98577.38;15297418;19;20090;-76
2024/03/05 20:29:02;;;;;;;18.70;16.23;;;;;;;4.64;100.00;98581.75;15297559;19;20010;-76
2024/03/05 20:34:27;;;;;;;18.55;16.30;;;;;;;4.65;100.00;98587.94;15294941;19;20018;-76
2024/03/05 20:40:02;;;;;;;17.70;15.75;;;;;;;4.67;100.00;98581.53;15297770;19;20032;-76
2024/03/05 20:45:28;;;;;;;19.50;15.68;;;;;;;4.67;100.00;98584.19;15299218;19;20058;-76
2024/03/05 20:50:52;;;;;;;18.05;15.32;;;;;;;4.66;100.00;98577.16;15156584;19;20394;-76
2024/03/05 20:56:20;;;;;;;17.40;15.48;;;;;;;4.66;100.00;98582.47;15301625;19;20011;-76
2024/03/05 21:01:45;;;;;;;17.75;14.80;;;;;;;4.67;100.00;98588.66;15297657;19;20007;-79
2024/03/05 21:07:11;;;;;;;19.35;14.88;;;;;;;4.67;100.00;98596.66;15300328;19;20030;-77
2024/03/05 21:12:38;;;;;;;17.05;14.55;;;;;;;4.73;100.00;98601.53;15293462;19;20018;-77
2024/03/05 21:18:08;;;;;;;18.38;15.30;;;;;;;4.77;100.00;98600.31;15303187;19;20090;-76
2024/03/05 21:23:33;;;;;;;18.92;15.07;;;;;;;4.80;100.00;98608.09;15296492;19;20035;-76
2024/03/05 21:29:01;;;;;;;17.13;15.07;;;;;;;4.83;100.00;98607.00;15293921;19;20029;-76
2024/03/05 21:34:26;;;;;;;19.25;15.77;;;;;;;4.84;100.00;98606.88;15280438;19;20486;-75
2024/03/05 21:39:58;;;;;;;20.40;15.45;;;;;;;4.84;100.00;98609.56;15294104;19;20026;-76
2024/03/05 21:45:26;;;;;;;17.77;15.57;;;;;;;4.86;100.00;98612.09;15296946;19;20014;-77
2024/03/05 21:50:53;;;;;;;19.80;15.75;;;;;;;4.85;100.00;98611.25;15297038;19;20027;-76
2024/03/05 21:56:28;;;;;;;18.80;15.20;;;;;;;4.86;100.00;98607.63;15285337;19;20031;-76
2024/03/05 22:01:57;;;;;;;17.95;14.95;;;;;;;4.86;100.00;98609.44;15302612;19;20046;-76
2024/03/05 22:07:22;;;;;;;19.80;15.48;;;;;;;4.86;100.00;98618.31;15293536;19;20551;-77
2024/03/05 22:12:47;;;;;;;22.95;15.50;;;;;;;4.88;100.00;98626.19;15297680;19;20037;-76
2024/03/05 22:18:15;;;;;;;16.83;14.73;;;;;;;4.97;100.00;98625.44;15308123;19;20082;-77
2024/03/05 22:23:39;;;;;;;19.75;14.98;;;;;;;5.08;100.00;98637.97;15313559;19;20477;-76
2024/03/05 22:29:06;;;;;;;17.45;14.65;;;;;;;5.16;100.00;98632.88;15303057;19;20018;-77
2024/03/05 22:34:36;;;;;;;20.63;15.80;;;;;;;5.22;100.00;98637.72;15305745;19;20488;-77
2024/03/05 22:40:04;;;;;;;18.65;15.75;;;;;;;5.28;100.00;98638.19;15306399;19;20025;-76
2024/03/05 22:45:31;;;;;;;22.02;17.40;;;;;;;5.33;100.00;98636.88;15329718;19;20039;-75
2024/03/05 22:50:59;;;;;;;21.90;18.05;;;;;;;5.30;100.00;98628.25;15329058;19;20050;-76
2024/03/05 22:56:24;;;;;;;21.17;17.67;;;;;;;5.24;100.00;98626.91;15291551;19;20003;-76
2024/03/05 23:01:48;;;;;;;24.30;18.73;;;;;;;5.06;100.00;98627.38;15290551;19;20024;-76
2024/03/05 23:07:15;;;;;;;22.98;18.73;;;;;;;4.94;100.00;98621.22;15295826;19;20028;-77
2024/03/05 23:12:40;;;;;;;24.05;19.15;;;;;;;4.84;100.00;98620.25;15293471;19;20051;-77
2024/03/05 23:18:05;;;;;;;29.27;20.00;;;;;;;4.76;100.00;98631.50;15294320;19;20082;-77
2024/03/05 23:23:32;;;;;;;26.20;19.95;;;;;;;4.71;100.00;98627.50;15296783;19;20014;-77
2024/03/05 23:28:57;;;;;;;22.73;19.60;;;;;;;4.66;100.00;98637.66;15298354;19;20010;-77
2024/03/05 23:34:21;;;;;;;25.33;19.67;;;;;;;4.68;100.00;98646.41;15295344;19;20035;-76
2024/03/05 23:39:55;;;;;;;23.80;20.08;;;;;;;4.68;100.00;98651.75;15285429;19;20026;-76
2024/03/05 23:45:21;;;;;;;26.27;19.58;;;;;;;4.66;100.00;98653.66;15283710;19;20087;-76
2024/03/05 23:50:45;;;;;;;24.73;19.08;;;;;;;4.66;100.00;98667.03;15295244;19;20582;-76
2024/03/05 23:56:13;;;;;;;21.17;18.27;;;;;;;4.64;100.00;98661.81;15316313;19;20018;-76
